Pilar, New Mexico
Current Conditions -  °F | °C
As of 7:35 AM on Tuesday 21 Oct 2014 (Local Time) from KSKX Reporting Station
Broken Clouds Broken Clouds  
Wind Chill: 37°   Ceiling: 7000
Heat Index: 37°   Visibility: 10mi
Dew Point: 34°   Wind: 0mph
Humidity: 87%   Direction: NA
Pressure: 30.25"   Gusts: NA
Location:  36.4227°N, 105.509°W
Report Text: KSKX 211335Z AUTO 00000KT 10SM SCT014 BKN070 03/01 A3025 RMK AO1
Loading
Personal Weather Stations






























Interactive Weather Map
Tropical Storm Tracking
New forecast layout! Learn more

10-Day Weather Forecast

Advertisements
Track Severe Weather on mobile